sensor_id;sensor_type;location;lat;lon;timestamp;temperature;humidity
7360;DHT22;3720;48.274;7.796;2023-08-08T00:01:30;15.10;99.90
7360;DHT22;3720;48.274;7.796;2023-08-08T00:04:02;15.00;99.90
7360;DHT22;3720;48.274;7.796;2023-08-08T00:06:34;15.00;99.90
7360;DHT22;3720;48.274;7.796;2023-08-08T00:09:06;15.00;99.90
7360;DHT22;3720;48.274;7.796;2023-08-08T00:11:38;15.00;99.90
7360;DHT22;3720;48.274;7.796;2023-08-08T00:14:10;15.00;99.90
7360;DHT22;3720;48.274;7.796;2023-08-08T00:16:43;14.90;99.90
7360;DHT22;3720;48.274;7.796;2023-08-08T00:19:15;14.90;99.90
7360;DHT22;3720;48.274;7.796;2023-08-08T00:21:47;14.90;99.90
7360;DHT22;3720;48.274;7.796;2023-08-08T00:24:19;14.90;99.90
7360;DHT22;3720;48.274;7.796;2023-08-08T00:26:51;14.80;99.90
7360;DHT22;3720;48.274;7.796;2023-08-08T00:29:23;14.80;99.90
7360;DHT22;3720;48.274;7.796;2023-08-08T00:31:56;14.70;99.90
7360;DHT22;3720;48.274;7.796;2023-08-08T00:34:28;14.70;99.90
7360;DHT22;3720;48.274;7.796;2023-08-08T00:37:00;14.70;99.90
7360;DHT22;3720;48.274;7.796;2023-08-08T00:39:31;14.70;99.90
7360;DHT22;3720;48.274;7.796;2023-08-08T00:42:04;14.70;99.90
7360;DHT22;3720;48.274;7.796;2023-08-08T00:44:35;14.70;99.90
7360;DHT22;3720;48.274;7.796;2023-08-08T00:47:10;14.60;99.90
7360;DHT22;3720;48.274;7.796;2023-08-08T00:49:42;14.60;99.90
7360;DHT22;3720;48.274;7.796;2023-08-08T00:52:17;14.60;99.90
7360;DHT22;3720;48.274;7.796;2023-08-08T00:54:48;14.50;99.90
7360;DHT22;3720;48.274;7.796;2023-08-08T00:57:20;14.50;99.90
7360;DHT22;3720;48.274;7.796;2023-08-08T00:59:52;14.50;99.90
7360;DHT22;3720;48.274;7.796;2023-08-08T01:02:26;14.40;99.90
7360;DHT22;3720;48.274;7.796;2023-08-08T01:04:58;14.40;99.90
7360;DHT22;3720;48.274;7.796;2023-08-08T01:07:33;14.40;99.90
7360;DHT22;3720;48.274;7.796;2023-08-08T01:10:10;14.40;99.90
7360;DHT22;3720;48.274;7.796;2023-08-08T01:12:45;14.40;99.90
7360;DHT22;3720;48.274;7.796;2023-08-08T01:15:18;14.50;99.90
7360;DHT22;3720;48.274;7.796;2023-08-08T01:17:52;14.50;99.90
7360;DHT22;3720;48.274;7.796;2023-08-08T01:20:25;14.50;99.90
7360;DHT22;3720;48.274;7.796;2023-08-08T01:23:06;14.50;99.90
7360;DHT22;3720;48.274;7.796;2023-08-08T01:25:42;14.50;99.90
7360;DHT22;3720;48.274;7.796;2023-08-08T01:28:15;14.50;99.90
7360;DHT22;3720;48.274;7.796;2023-08-08T01:30:47;14.50;99.90
7360;DHT22;3720;48.274;7.796;2023-08-08T01:33:19;14.50;99.90
7360;DHT22;3720;48.274;7.796;2023-08-08T01:36:04;14.50;99.90
7360;DHT22;3720;48.274;7.796;2023-08-08T01:38:41;14.50;99.90
7360;DHT22;3720;48.274;7.796;2023-08-08T01:41:18;14.50;99.90
7360;DHT22;3720;48.274;7.796;2023-08-08T01:43:52;14.50;99.90
7360;DHT22;3720;48.274;7.796;2023-08-08T01:46:25;14.50;99.90
7360;DHT22;3720;48.274;7.796;2023-08-08T01:48:57;14.50;99.90
7360;DHT22;3720;48.274;7.796;2023-08-08T01:51:29;14.40;99.90
7360;DHT22;3720;48.274;7.796;2023-08-08T01:54:01;14.40;99.90
7360;DHT22;3720;48.274;7.796;2023-08-08T01:56:35;14.40;99.90
7360;DHT22;3720;48.274;7.796;2023-08-08T01:59:06;14.40;99.90
7360;DHT22;3720;48.274;7.796;2023-08-08T02:01:38;14.40;99.90
7360;DHT22;3720;48.274;7.796;2023-08-08T02:04:10;14.40;99.90
7360;DHT22;3720;48.274;7.796;2023-08-08T02:06:42;14.40;99.90
7360;DHT22;3720;48.274;7.796;2023-08-08T02:09:14;14.40;99.90
7360;DHT22;3720;48.274;7.796;2023-08-08T02:11:47;14.40;99.90
7360;DHT22;3720;48.274;7.796;2023-08-08T02:14:19;14.40;99.90
7360;DHT22;3720;48.274;7.796;2023-08-08T02:16:51;14.30;99.90
7360;DHT22;3720;48.274;7.796;2023-08-08T02:19:23;14.40;99.90
7360;DHT22;3720;48.274;7.796;2023-08-08T02:21:54;14.40;99.90
7360;DHT22;3720;48.274;7.796;2023-08-08T02:24:26;14.40;99.90
7360;DHT22;3720;48.274;7.796;2023-08-08T02:27:00;14.30;99.90
7360;DHT22;3720;48.274;7.796;2023-08-08T02:29:31;14.30;99.90
7360;DHT22;3720;48.274;7.796;2023-08-08T02:32:04;14.30;99.90
7360;DHT22;3720;48.274;7.796;2023-08-08T02:34:36;14.30;99.90
7360;DHT22;3720;48.274;7.796;2023-08-08T02:37:08;14.40;99.90
7360;DHT22;3720;48.274;7.796;2023-08-08T02:39:41;14.30;99.90
7360;DHT22;3720;48.274;7.796;2023-08-08T02:42:14;14.20;99.90
7360;DHT22;3720;48.274;7.796;2023-08-08T02:44:46;14.20;99.90
7360;DHT22;3720;48.274;7.796;2023-08-08T02:47:18;14.00;99.90
7360;DHT22;3720;48.274;7.796;2023-08-08T02:49:50;13.90;99.90
7360;DHT22;3720;48.274;7.796;2023-08-08T02:52:22;13.80;99.90
7360;DHT22;3720;48.274;7.796;2023-08-08T02:54:54;13.80;99.90
7360;DHT22;3720;48.274;7.796;2023-08-08T02:57:27;13.70;99.90
7360;DHT22;3720;48.274;7.796;2023-08-08T02:59:59;13.60;99.90
7360;DHT22;3720;48.274;7.796;2023-08-08T03:02:31;13.60;99.90
7360;DHT22;3720;48.274;7.796;2023-08-08T03:05:03;13.60;99.90
7360;DHT22;3720;48.274;7.796;2023-08-08T03:07:36;13.50;99.90
7360;DHT22;3720;48.274;7.796;2023-08-08T03:10:08;13.50;99.90
7360;DHT22;3720;48.274;7.796;2023-08-08T03:12:42;13.50;99.90
7360;DHT22;3720;48.274;7.796;2023-08-08T03:15:14;13.50;99.90
7360;DHT22;3720;48.274;7.796;2023-08-08T03:17:46;13.60;99.90
7360;DHT22;3720;48.274;7.796;2023-08-08T03:20:18;13.60;99.90
7360;DHT22;3720;48.274;7.796;2023-08-08T03:22:50;13.50;99.90
7360;DHT22;3720;48.274;7.796;2023-08-08T03:25:22;13.50;99.90
7360;DHT22;3720;48.274;7.796;2023-08-08T03:27:55;13.50;99.90
7360;DHT22;3720;48.274;7.796;2023-08-08T03:30:27;13.40;99.90
7360;DHT22;3720;48.274;7.796;2023-08-08T03:32:58;13.40;99.90
7360;DHT22;3720;48.274;7.796;2023-08-08T03:35:30;13.40;99.90
7360;DHT22;3720;48.274;7.796;2023-08-08T03:38:02;13.30;99.90
7360;DHT22;3720;48.274;7.796;2023-08-08T03:40:35;13.30;99.90
7360;DHT22;3720;48.274;7.796;2023-08-08T03:43:08;13.30;99.90
7360;DHT22;3720;48.274;7.796;2023-08-08T03:45:40;13.40;99.90
7360;DHT22;3720;48.274;7.796;2023-08-08T03:48:12;13.40;99.90
7360;DHT22;3720;48.274;7.796;2023-08-08T03:50:44;13.40;99.90
7360;DHT22;3720;48.274;7.796;2023-08-08T03:53:16;13.40;99.90
7360;DHT22;3720;48.274;7.796;2023-08-08T03:55:48;13.40;99.90
7360;DHT22;3720;48.274;7.796;2023-08-08T03:58:22;13.40;99.90
7360;DHT22;3720;48.274;7.796;2023-08-08T04:00:53;13.40;99.90
7360;DHT22;3720;48.274;7.796;2023-08-08T04:03:27;13.30;99.90
7360;DHT22;3720;48.274;7.796;2023-08-08T04:05:59;13.20;99.90
7360;DHT22;3720;48.274;7.796;2023-08-08T04:08:31;13.10;99.90
7360;DHT22;3720;48.274;7.796;2023-08-08T04:11:03;13.10;99.90
7360;DHT22;3720;48.274;7.796;2023-08-08T04:13:36;13.00;99.90
7360;DHT22;3720;48.274;7.796;2023-08-08T04:16:08;13.10;99.90
7360;DHT22;3720;48.274;7.796;2023-08-08T04:18:40;13.00;99.90
7360;DHT22;3720;48.274;7.796;2023-08-08T04:21:12;13.00;99.90
7360;DHT22;3720;48.274;7.796;2023-08-08T04:23:44;13.10;99.90
7360;DHT22;3720;48.274;7.796;2023-08-08T04:26:16;13.10;99.90
7360;DHT22;3720;48.274;7.796;2023-08-08T04:28:50;13.10;99.90
7360;DHT22;3720;48.274;7.796;2023-08-08T04:31:22;13.10;99.90
7360;DHT22;3720;48.274;7.796;2023-08-08T04:33:56;13.00;99.90
7360;DHT22;3720;48.274;7.796;2023-08-08T04:36:31;13.00;99.90
7360;DHT22;3720;48.274;7.796;2023-08-08T04:39:03;12.90;99.90
7360;DHT22;3720;48.274;7.796;2023-08-08T04:41:35;12.90;99.90
7360;DHT22;3720;48.274;7.796;2023-08-08T04:44:08;12.90;99.90
7360;DHT22;3720;48.274;7.796;2023-08-08T04:46:40;12.90;99.90
7360;DHT22;3720;48.274;7.796;2023-08-08T04:49:12;13.00;99.90
7360;DHT22;3720;48.274;7.796;2023-08-08T04:51:44;12.90;99.90
7360;DHT22;3720;48.274;7.796;2023-08-08T04:54:16;12.90;99.90
7360;DHT22;3720;48.274;7.796;2023-08-08T04:56:48;12.80;99.90
7360;DHT22;3720;48.274;7.796;2023-08-08T04:59:21;12.90;99.90
7360;DHT22;3720;48.274;7.796;2023-08-08T05:01:53;13.30;99.90
7360;DHT22;3720;48.274;7.796;2023-08-08T05:04:24;13.70;99.90
7360;DHT22;3720;48.274;7.796;2023-08-08T05:06:56;13.90;99.90
7360;DHT22;3720;48.274;7.796;2023-08-08T05:09:29;13.90;99.90
7360;DHT22;3720;48.274;7.796;2023-08-08T05:12:01;13.70;99.90
7360;DHT22;3720;48.274;7.796;2023-08-08T05:14:34;13.60;99.90
7360;DHT22;3720;48.274;7.796;2023-08-08T05:17:06;13.50;99.90
7360;DHT22;3720;48.274;7.796;2023-08-08T05:19:38;13.40;99.90
7360;DHT22;3720;48.274;7.796;2023-08-08T05:22:09;13.30;99.90
7360;DHT22;3720;48.274;7.796;2023-08-08T05:24:41;13.40;99.90
7360;DHT22;3720;48.274;7.796;2023-08-08T05:27:13;13.30;99.90
7360;DHT22;3720;48.274;7.796;2023-08-08T05:29:46;13.30;99.90
7360;DHT22;3720;48.274;7.796;2023-08-08T05:32:18;13.30;99.90
7360;DHT22;3720;48.274;7.796;2023-08-08T05:34:51;13.30;99.90
7360;DHT22;3720;48.274;7.796;2023-08-08T05:37:23;13.30;99.90
7360;DHT22;3720;48.274;7.796;2023-08-08T05:39:55;13.30;99.90
7360;DHT22;3720;48.274;7.796;2023-08-08T05:42:27;13.40;99.90
7360;DHT22;3720;48.274;7.796;2023-08-08T05:45:00;13.50;99.90
7360;DHT22;3720;48.274;7.796;2023-08-08T05:47:32;13.50;99.90
7360;DHT22;3720;48.274;7.796;2023-08-08T05:50:04;13.50;99.90
7360;DHT22;3720;48.274;7.796;2023-08-08T05:52:36;13.50;99.90
7360;DHT22;3720;48.274;7.796;2023-08-08T05:55:08;13.70;99.90
7360;DHT22;3720;48.274;7.796;2023-08-08T05:57:40;13.70;99.90
7360;DHT22;3720;48.274;7.796;2023-08-08T06:00:15;13.70;99.90
7360;DHT22;3720;48.274;7.796;2023-08-08T06:02:47;13.80;99.90
7360;DHT22;3720;48.274;7.796;2023-08-08T06:05:20;13.90;99.90
7360;DHT22;3720;48.274;7.796;2023-08-08T06:07:52;13.90;99.90
7360;DHT22;3720;48.274;7.796;2023-08-08T06:10:25;14.00;99.90
7360;DHT22;3720;48.274;7.796;2023-08-08T06:12:57;14.10;99.90
7360;DHT22;3720;48.274;7.796;2023-08-08T06:15:30;14.10;99.90
7360;DHT22;3720;48.274;7.796;2023-08-08T06:18:02;14.20;99.90
7360;DHT22;3720;48.274;7.796;2023-08-08T06:20:35;14.30;99.90
7360;DHT22;3720;48.274;7.796;2023-08-08T06:23:07;14.40;99.90
7360;DHT22;3720;48.274;7.796;2023-08-08T06:25:38;14.50;99.90
7360;DHT22;3720;48.274;7.796;2023-08-08T06:28:10;14.60;99.90
7360;DHT22;3720;48.274;7.796;2023-08-08T06:30:44;14.70;99.90
7360;DHT22;3720;48.274;7.796;2023-08-08T06:33:16;14.80;99.90
7360;DHT22;3720;48.274;7.796;2023-08-08T06:35:48;14.90;99.90
7360;DHT22;3720;48.274;7.796;2023-08-08T06:38:20;15.00;99.90
7360;DHT22;3720;48.274;7.796;2023-08-08T06:40:51;15.20;99.90
7360;DHT22;3720;48.274;7.796;2023-08-08T06:43:23;15.30;99.90
7360;DHT22;3720;48.274;7.796;2023-08-08T06:45:57;15.50;99.90
7360;DHT22;3720;48.274;7.796;2023-08-08T06:48:29;15.60;99.90
7360;DHT22;3720;48.274;7.796;2023-08-08T06:51:01;15.70;99.90
7360;DHT22;3720;48.274;7.796;2023-08-08T06:53:33;15.90;99.90
7360;DHT22;3720;48.274;7.796;2023-08-08T06:56:04;16.00;99.90
7360;DHT22;3720;48.274;7.796;2023-08-08T06:58:36;16.20;99.90
7360;DHT22;3720;48.274;7.796;2023-08-08T07:01:10;16.20;99.90
7360;DHT22;3720;48.274;7.796;2023-08-08T07:03:41;16.40;99.90
7360;DHT22;3720;48.274;7.796;2023-08-08T07:06:17;16.50;99.90
7360;DHT22;3720;48.274;7.796;2023-08-08T07:08:49;16.50;99.90
7360;DHT22;3720;48.274;7.796;2023-08-08T07:11:21;16.60;99.90
7360;DHT22;3720;48.274;7.796;2023-08-08T07:13:53;16.70;99.90
7360;DHT22;3720;48.274;7.796;2023-08-08T07:16:26;16.80;99.90
7360;DHT22;3720;48.274;7.796;2023-08-08T07:18:58;16.80;99.90
7360;DHT22;3720;48.274;7.796;2023-08-08T07:21:29;17.00;99.90
7360;DHT22;3720;48.274;7.796;2023-08-08T07:24:02;17.00;99.90
7360;DHT22;3720;48.274;7.796;2023-08-08T07:26:34;17.10;99.90
7360;DHT22;3720;48.274;7.796;2023-08-08T07:29:06;17.20;99.90
7360;DHT22;3720;48.274;7.796;2023-08-08T07:31:39;17.30;99.90
7360;DHT22;3720;48.274;7.796;2023-08-08T07:34:11;17.40;99.90
7360;DHT22;3720;48.274;7.796;2023-08-08T07:36:43;17.50;99.90
7360;DHT22;3720;48.274;7.796;2023-08-08T07:39:14;17.50;99.90
7360;DHT22;3720;48.274;7.796;2023-08-08T07:41:46;17.70;99.90
7360;DHT22;3720;48.274;7.796;2023-08-08T07:44:18;17.80;99.90
7360;DHT22;3720;48.274;7.796;2023-08-08T07:46:51;17.70;99.90
7360;DHT22;3720;48.274;7.796;2023-08-08T07:49:23;17.80;99.90
7360;DHT22;3720;48.274;7.796;2023-08-08T07:51:55;17.90;99.90
7360;DHT22;3720;48.274;7.796;2023-08-08T07:54:27;18.00;99.90
7360;DHT22;3720;48.274;7.796;2023-08-08T07:56:59;18.10;99.90
7360;DHT22;3720;48.274;7.796;2023-08-08T07:59:30;18.10;99.90
7360;DHT22;3720;48.274;7.796;2023-08-08T08:02:04;18.30;99.90
7360;DHT22;3720;48.274;7.796;2023-08-08T08:04:36;18.40;99.90
7360;DHT22;3720;48.274;7.796;2023-08-08T08:07:08;18.40;99.90
7360;DHT22;3720;48.274;7.796;2023-08-08T08:09:40;18.60;99.90
7360;DHT22;3720;48.274;7.796;2023-08-08T08:12:13;18.60;99.90
7360;DHT22;3720;48.274;7.796;2023-08-08T08:14:45;18.60;99.90
7360;DHT22;3720;48.274;7.796;2023-08-08T08:17:18;18.70;99.90
7360;DHT22;3720;48.274;7.796;2023-08-08T08:19:51;18.70;99.90
7360;DHT22;3720;48.274;7.796;2023-08-08T08:22:23;18.90;99.90
7360;DHT22;3720;48.274;7.796;2023-08-08T08:24:54;19.00;99.90
7360;DHT22;3720;48.274;7.796;2023-08-08T08:27:26;19.20;99.90
7360;DHT22;3720;48.274;7.796;2023-08-08T08:29:58;19.30;99.90
7360;DHT22;3720;48.274;7.796;2023-08-08T08:32:33;19.40;99.90
7360;DHT22;3720;48.274;7.796;2023-08-08T08:35:07;19.50;99.90
7360;DHT22;3720;48.274;7.796;2023-08-08T08:37:39;19.60;99.90
7360;DHT22;3720;48.274;7.796;2023-08-08T08:40:11;19.70;99.90
7360;DHT22;3720;48.274;7.796;2023-08-08T08:42:44;19.80;99.90
7360;DHT22;3720;48.274;7.796;2023-08-08T08:45:20;19.80;99.90
7360;DHT22;3720;48.274;7.796;2023-08-08T08:47:56;20.00;99.90
7360;DHT22;3720;48.274;7.796;2023-08-08T08:50:30;20.20;99.90
7360;DHT22;3720;48.274;7.796;2023-08-08T08:53:05;20.30;99.90
7360;DHT22;3720;48.274;7.796;2023-08-08T08:55:37;20.30;99.90
7360;DHT22;3720;48.274;7.796;2023-08-08T08:58:09;20.40;99.90
7360;DHT22;3720;48.274;7.796;2023-08-08T09:00:43;20.40;99.90
7360;DHT22;3720;48.274;7.796;2023-08-08T09:03:17;20.50;99.90
7360;DHT22;3720;48.274;7.796;2023-08-08T09:05:51;20.50;99.90
7360;DHT22;3720;48.274;7.796;2023-08-08T09:08:25;20.60;99.90
7360;DHT22;3720;48.274;7.796;2023-08-08T09:10:57;20.80;99.90
7360;DHT22;3720;48.274;7.796;2023-08-08T09:13:36;20.90;99.90
7360;DHT22;3720;48.274;7.796;2023-08-08T09:16:08;20.90;99.90
7360;DHT22;3720;48.274;7.796;2023-08-08T09:18:44;20.90;99.90
7360;DHT22;3720;48.274;7.796;2023-08-08T09:21:15;21.00;99.90
7360;DHT22;3720;48.274;7.796;2023-08-08T09:23:47;21.20;99.90
7360;DHT22;3720;48.274;7.796;2023-08-08T09:26:19;21.30;99.90
7360;DHT22;3720;48.274;7.796;2023-08-08T09:28:51;21.40;99.90
7360;DHT22;3720;48.274;7.796;2023-08-08T09:31:25;21.40;99.90
7360;DHT22;3720;48.274;7.796;2023-08-08T09:33:59;21.50;99.90
7360;DHT22;3720;48.274;7.796;2023-08-08T09:36:31;21.60;99.90
7360;DHT22;3720;48.274;7.796;2023-08-08T09:39:05;21.60;99.90
7360;DHT22;3720;48.274;7.796;2023-08-08T09:41:38;21.70;99.90
7360;DHT22;3720;48.274;7.796;2023-08-08T09:44:10;21.90;99.90
7360;DHT22;3720;48.274;7.796;2023-08-08T09:46:43;22.10;99.90
7360;DHT22;3720;48.274;7.796;2023-08-08T09:49:16;22.00;99.90
7360;DHT22;3720;48.274;7.796;2023-08-08T09:51:49;22.00;99.90
7360;DHT22;3720;48.274;7.796;2023-08-08T09:54:21;22.00;99.90
7360;DHT22;3720;48.274;7.796;2023-08-08T09:56:53;22.00;99.90
7360;DHT22;3720;48.274;7.796;2023-08-08T09:59:26;22.00;99.90
7360;DHT22;3720;48.274;7.796;2023-08-08T10:01:59;22.20;99.90
7360;DHT22;3720;48.274;7.796;2023-08-08T10:04:32;22.30;99.90
7360;DHT22;3720;48.274;7.796;2023-08-08T10:07:04;22.40;99.90
7360;DHT22;3720;48.274;7.796;2023-08-08T10:09:36;22.50;99.90
7360;DHT22;3720;48.274;7.796;2023-08-08T10:12:11;22.60;99.90
7360;DHT22;3720;48.274;7.796;2023-08-08T10:14:45;22.80;99.90
7360;DHT22;3720;48.274;7.796;2023-08-08T10:17:18;22.90;99.90
7360;DHT22;3720;48.274;7.796;2023-08-08T10:19:53;22.90;99.90
7360;DHT22;3720;48.274;7.796;2023-08-08T10:22:27;22.90;99.90
7360;DHT22;3720;48.274;7.796;2023-08-08T10:24:58;22.90;99.90
7360;DHT22;3720;48.274;7.796;2023-08-08T10:27:35;23.00;99.90
7360;DHT22;3720;48.274;7.796;2023-08-08T10:30:09;23.10;99.90
7360;DHT22;3720;48.274;7.796;2023-08-08T10:32:44;23.00;99.90
7360;DHT22;3720;48.274;7.796;2023-08-08T10:35:18;23.00;99.90
7360;DHT22;3720;48.274;7.796;2023-08-08T10:37:53;23.10;99.90
7360;DHT22;3720;48.274;7.796;2023-08-08T10:40:32;23.20;99.90
7360;DHT22;3720;48.274;7.796;2023-08-08T10:43:11;23.10;99.90
7360;DHT22;3720;48.274;7.796;2023-08-08T10:45:44;23.00;99.90
7360;DHT22;3720;48.274;7.796;2023-08-08T10:48:16;23.00;99.90
7360;DHT22;3720;48.274;7.796;2023-08-08T10:50:50;22.80;99.90
7360;DHT22;3720;48.274;7.796;2023-08-08T10:53:26;22.90;99.90
7360;DHT22;3720;48.274;7.796;2023-08-08T10:55:59;23.00;99.90
7360;DHT22;3720;48.274;7.796;2023-08-08T10:58:37;23.10;99.90
7360;DHT22;3720;48.274;7.796;2023-08-08T11:01:10;23.30;99.90
7360;DHT22;3720;48.274;7.796;2023-08-08T11:03:44;23.40;99.90
7360;DHT22;3720;48.274;7.796;2023-08-08T11:06:18;23.60;99.90
7360;DHT22;3720;48.274;7.796;2023-08-08T11:08:50;23.60;99.90
7360;DHT22;3720;48.274;7.796;2023-08-08T11:11:23;23.60;99.90
7360;DHT22;3720;48.274;7.796;2023-08-08T11:13:55;23.60;99.90
7360;DHT22;3720;48.274;7.796;2023-08-08T11:16:27;23.70;99.90
7360;DHT22;3720;48.274;7.796;2023-08-08T11:18:59;23.90;99.90
7360;DHT22;3720;48.274;7.796;2023-08-08T11:21:34;24.00;99.90
7360;DHT22;3720;48.274;7.796;2023-08-08T11:24:09;24.10;99.90
7360;DHT22;3720;48.274;7.796;2023-08-08T11:26:42;24.00;99.90
7360;DHT22;3720;48.274;7.796;2023-08-08T11:29:15;23.90;99.90
7360;DHT22;3720;48.274;7.796;2023-08-08T11:31:48;23.70;99.90
7360;DHT22;3720;48.274;7.796;2023-08-08T11:34:20;23.60;99.90
7360;DHT22;3720;48.274;7.796;2023-08-08T11:36:53;23.50;99.90
7360;DHT22;3720;48.274;7.796;2023-08-08T11:39:26;23.40;99.90
7360;DHT22;3720;48.274;7.796;2023-08-08T11:41:58;23.30;99.90
7360;DHT22;3720;48.274;7.796;2023-08-08T11:44:30;23.40;99.90
7360;DHT22;3720;48.274;7.796;2023-08-08T11:47:03;23.60;99.90
7360;DHT22;3720;48.274;7.796;2023-08-08T11:49:40;24.00;99.90
7360;DHT22;3720;48.274;7.796;2023-08-08T11:52:14;23.80;99.90
7360;DHT22;3720;48.274;7.796;2023-08-08T11:54:51;23.80;99.90
7360;DHT22;3720;48.274;7.796;2023-08-08T11:57:22;23.70;99.90
7360;DHT22;3720;48.274;7.796;2023-08-08T11:59:54;23.60;99.90
7360;DHT22;3720;48.274;7.796;2023-08-08T12:02:27;23.70;99.90
7360;DHT22;3720;48.274;7.796;2023-08-08T12:05:04;23.60;99.90
7360;DHT22;3720;48.274;7.796;2023-08-08T12:07:37;23.70;99.90
7360;DHT22;3720;48.274;7.796;2023-08-08T12:10:14;23.70;99.90
7360;DHT22;3720;48.274;7.796;2023-08-08T12:12:52;23.80;99.90
7360;DHT22;3720;48.274;7.796;2023-08-08T12:15:28;24.00;99.90
7360;DHT22;3720;48.274;7.796;2023-08-08T12:18:01;24.40;99.90
7360;DHT22;3720;48.274;7.796;2023-08-08T12:20:33;24.60;99.90
7360;DHT22;3720;48.274;7.796;2023-08-08T12:23:07;24.70;99.90
7360;DHT22;3720;48.274;7.796;2023-08-08T12:25:39;24.40;99.90
7360;DHT22;3720;48.274;7.796;2023-08-08T12:28:11;24.30;99.90
7360;DHT22;3720;48.274;7.796;2023-08-08T12:30:42;24.10;99.90
7360;DHT22;3720;48.274;7.796;2023-08-08T12:33:14;23.80;99.90
7360;DHT22;3720;48.274;7.796;2023-08-08T12:35:47;23.60;99.90
7360;DHT22;3720;48.274;7.796;2023-08-08T12:38:20;23.40;99.90
7360;DHT22;3720;48.274;7.796;2023-08-08T12:40:52;23.20;99.90
7360;DHT22;3720;48.274;7.796;2023-08-08T12:43:24;23.10;99.90
7360;DHT22;3720;48.274;7.796;2023-08-08T12:45:56;23.00;99.90
7360;DHT22;3720;48.274;7.796;2023-08-08T12:48:28;22.90;99.90
7360;DHT22;3720;48.274;7.796;2023-08-08T12:51:00;22.70;99.90
7360;DHT22;3720;48.274;7.796;2023-08-08T12:53:33;22.60;99.90
7360;DHT22;3720;48.274;7.796;2023-08-08T12:56:05;22.40;99.90
7360;DHT22;3720;48.274;7.796;2023-08-08T12:58:37;22.40;99.90
7360;DHT22;3720;48.274;7.796;2023-08-08T13:01:09;22.30;99.90
7360;DHT22;3720;48.274;7.796;2023-08-08T13:03:41;22.40;99.90
7360;DHT22;3720;48.274;7.796;2023-08-08T13:06:13;22.30;99.90
7360;DHT22;3720;48.274;7.796;2023-08-08T13:08:46;22.30;99.90
7360;DHT22;3720;48.274;7.796;2023-08-08T13:11:18;22.30;99.90
7360;DHT22;3720;48.274;7.796;2023-08-08T13:13:50;22.40;99.90
7360;DHT22;3720;48.274;7.796;2023-08-08T13:16:22;22.40;99.90
7360;DHT22;3720;48.274;7.796;2023-08-08T13:18:54;22.50;99.90
7360;DHT22;3720;48.274;7.796;2023-08-08T13:21:25;22.60;99.90
7360;DHT22;3720;48.274;7.796;2023-08-08T13:23:59;23.10;99.90
7360;DHT22;3720;48.274;7.796;2023-08-08T13:26:31;23.70;99.90
7360;DHT22;3720;48.274;7.796;2023-08-08T13:29:03;24.10;99.90
7360;DHT22;3720;48.274;7.796;2023-08-08T13:31:34;24.20;99.90
7360;DHT22;3720;48.274;7.796;2023-08-08T13:34:06;24.10;99.90
7360;DHT22;3720;48.274;7.796;2023-08-08T13:36:39;23.90;99.90
7360;DHT22;3720;48.274;7.796;2023-08-08T13:39:13;23.80;99.90
7360;DHT22;3720;48.274;7.796;2023-08-08T13:41:45;23.60;99.90
7360;DHT22;3720;48.274;7.796;2023-08-08T13:44:16;23.50;99.90
7360;DHT22;3720;48.274;7.796;2023-08-08T13:46:48;23.50;99.90
7360;DHT22;3720;48.274;7.796;2023-08-08T13:49:22;23.50;99.90
7360;DHT22;3720;48.274;7.796;2023-08-08T13:51:56;23.50;99.90
7360;DHT22;3720;48.274;7.796;2023-08-08T13:54:30;23.60;99.90
7360;DHT22;3720;48.274;7.796;2023-08-08T13:57:02;23.80;99.90
7360;DHT22;3720;48.274;7.796;2023-08-08T13:59:34;23.90;99.90
7360;DHT22;3720;48.274;7.796;2023-08-08T14:02:06;23.90;99.90
7360;DHT22;3720;48.274;7.796;2023-08-08T14:04:38;23.80;99.90
7360;DHT22;3720;48.274;7.796;2023-08-08T14:07:10;23.70;99.90
7360;DHT22;3720;48.274;7.796;2023-08-08T14:09:43;23.70;99.90
7360;DHT22;3720;48.274;7.796;2023-08-08T14:12:15;23.50;99.90
7360;DHT22;3720;48.274;7.796;2023-08-08T14:14:47;23.50;99.90
7360;DHT22;3720;48.274;7.796;2023-08-08T14:17:19;23.20;99.90
7360;DHT22;3720;48.274;7.796;2023-08-08T14:19:51;23.20;99.90
7360;DHT22;3720;48.274;7.796;2023-08-08T14:22:23;23.20;99.90
7360;DHT22;3720;48.274;7.796;2023-08-08T14:24:56;23.20;99.90
7360;DHT22;3720;48.274;7.796;2023-08-08T14:27:28;23.30;99.90
7360;DHT22;3720;48.274;7.796;2023-08-08T14:30:01;23.50;99.90
7360;DHT22;3720;48.274;7.796;2023-08-08T14:32:34;23.80;99.90
7360;DHT22;3720;48.274;7.796;2023-08-08T14:35:06;24.00;99.90
7360;DHT22;3720;48.274;7.796;2023-08-08T14:37:39;24.10;99.90
7360;DHT22;3720;48.274;7.796;2023-08-08T14:40:13;24.00;99.90
7360;DHT22;3720;48.274;7.796;2023-08-08T14:42:45;23.90;99.90
7360;DHT22;3720;48.274;7.796;2023-08-08T14:45:17;23.90;99.90
7360;DHT22;3720;48.274;7.796;2023-08-08T14:47:49;24.00;99.90
7360;DHT22;3720;48.274;7.796;2023-08-08T14:50:21;24.00;99.90
7360;DHT22;3720;48.274;7.796;2023-08-08T14:52:53;24.10;99.90
7360;DHT22;3720;48.274;7.796;2023-08-08T14:55:26;24.20;99.90
7360;DHT22;3720;48.274;7.796;2023-08-08T14:57:58;24.20;99.90
7360;DHT22;3720;48.274;7.796;2023-08-08T15:00:30;24.20;99.90
7360;DHT22;3720;48.274;7.796;2023-08-08T15:03:02;24.20;99.90
7360;DHT22;3720;48.274;7.796;2023-08-08T15:05:34;24.20;99.90
7360;DHT22;3720;48.274;7.796;2023-08-08T15:08:06;24.30;99.90
7360;DHT22;3720;48.274;7.796;2023-08-08T15:10:41;24.30;99.90
7360;DHT22;3720;48.274;7.796;2023-08-08T15:13:13;24.30;99.90
7360;DHT22;3720;48.274;7.796;2023-08-08T15:15:45;24.20;99.90
7360;DHT22;3720;48.274;7.796;2023-08-08T15:18:17;24.20;99.90
7360;DHT22;3720;48.274;7.796;2023-08-08T15:20:50;24.10;99.90
7360;DHT22;3720;48.274;7.796;2023-08-08T15:23:22;24.00;99.90
7360;DHT22;3720;48.274;7.796;2023-08-08T15:25:55;24.00;99.90
7360;DHT22;3720;48.274;7.796;2023-08-08T15:28:29;23.90;99.90
7360;DHT22;3720;48.274;7.796;2023-08-08T15:31:01;23.80;99.90
7360;DHT22;3720;48.274;7.796;2023-08-08T15:33:32;23.90;99.90
7360;DHT22;3720;48.274;7.796;2023-08-08T15:36:05;23.80;99.90
7360;DHT22;3720;48.274;7.796;2023-08-08T15:38:37;23.80;99.90
7360;DHT22;3720;48.274;7.796;2023-08-08T15:41:10;24.10;99.90
7360;DHT22;3720;48.274;7.796;2023-08-08T15:43:43;24.30;99.90
7360;DHT22;3720;48.274;7.796;2023-08-08T15:46:15;24.60;99.90
7360;DHT22;3720;48.274;7.796;2023-08-08T15:48:46;24.60;99.90
7360;DHT22;3720;48.274;7.796;2023-08-08T15:51:18;24.60;99.90
7360;DHT22;3720;48.274;7.796;2023-08-08T15:53:50;24.50;99.90
7360;DHT22;3720;48.274;7.796;2023-08-08T15:56:24;24.40;99.90
7360;DHT22;3720;48.274;7.796;2023-08-08T15:58:57;24.50;99.90
7360;DHT22;3720;48.274;7.796;2023-08-08T16:01:29;24.60;99.90
7360;DHT22;3720;48.274;7.796;2023-08-08T16:04:01;24.70;99.90
7360;DHT22;3720;48.274;7.796;2023-08-08T16:06:33;24.90;99.90
7360;DHT22;3720;48.274;7.796;2023-08-08T16:09:05;25.10;99.90
7360;DHT22;3720;48.274;7.796;2023-08-08T16:11:39;25.20;99.90
7360;DHT22;3720;48.274;7.796;2023-08-08T16:14:11;25.30;99.90
7360;DHT22;3720;48.274;7.796;2023-08-08T16:16:43;25.40;99.90
7360;DHT22;3720;48.274;7.796;2023-08-08T16:19:15;25.30;99.90
7360;DHT22;3720;48.274;7.796;2023-08-08T16:21:47;25.30;99.90
7360;DHT22;3720;48.274;7.796;2023-08-08T16:24:19;25.30;99.90
7360;DHT22;3720;48.274;7.796;2023-08-08T16:26:52;25.30;99.90
7360;DHT22;3720;48.274;7.796;2023-08-08T16:29:24;25.30;99.90
7360;DHT22;3720;48.274;7.796;2023-08-08T16:31:56;25.10;99.90
7360;DHT22;3720;48.274;7.796;2023-08-08T16:34:28;24.90;99.90
7360;DHT22;3720;48.274;7.796;2023-08-08T16:37:01;24.70;99.90